sensor_id;sensor_type;location;lat;lon;timestamp;temperature;humidity
27270;DHT22;14769;56.934;24.176;2022-07-23T00:00:02;22.10;99.90
27270;DHT22;14769;56.934;24.176;2022-07-23T00:01:04;22.10;99.90
27270;DHT22;14769;56.934;24.176;2022-07-23T00:02:06;22.20;99.90
27270;DHT22;14769;56.934;24.176;2022-07-23T00:03:08;22.20;99.90
27270;DHT22;14769;56.934;24.176;2022-07-23T00:04:10;22.20;99.90
27270;DHT22;14769;56.934;24.176;2022-07-23T00:05:12;22.20;99.90
27270;DHT22;14769;56.934;24.176;2022-07-23T00:06:14;22.20;99.90
27270;DHT22;14769;56.934;24.176;2022-07-23T00:07:16;22.20;99.90
27270;DHT22;14769;56.934;24.176;2022-07-23T00:08:18;22.20;99.90
27270;DHT22;14769;56.934;24.176;2022-07-23T00:09:20;22.20;99.90
27270;DHT22;14769;56.934;24.176;2022-07-23T00:10:22;22.10;99.90
27270;DHT22;14769;56.934;24.176;2022-07-23T00:11:23;22.10;99.90
27270;DHT22;14769;56.934;24.176;2022-07-23T00:12:25;22.10;99.90
27270;DHT22;14769;56.934;24.176;2022-07-23T00:13:27;22.00;99.90
27270;DHT22;14769;56.934;24.176;2022-07-23T00:14:29;22.00;99.90
27270;DHT22;14769;56.934;24.176;2022-07-23T00:15:31;22.00;99.90
27270;DHT22;14769;56.934;24.176;2022-07-23T00:16:32;21.90;99.90
27270;DHT22;14769;56.934;24.176;2022-07-23T00:17:35;22.00;99.90
27270;DHT22;14769;56.934;24.176;2022-07-23T00:18:37;22.00;99.90
27270;DHT22;14769;56.934;24.176;2022-07-23T00:19:38;22.00;99.90
27270;DHT22;14769;56.934;24.176;2022-07-23T00:20:40;22.00;99.90
27270;DHT22;14769;56.934;24.176;2022-07-23T00:21:42;22.00;99.90
27270;DHT22;14769;56.934;24.176;2022-07-23T00:22:54;21.90;99.90
27270;DHT22;14769;56.934;24.176;2022-07-23T00:23:56;21.90;99.90
27270;DHT22;14769;56.934;24.176;2022-07-23T00:24:58;21.80;99.90
27270;DHT22;14769;56.934;24.176;2022-07-23T00:26:19;21.80;99.90
27270;DHT22;14769;56.934;24.176;2022-07-23T00:27:22;21.80;99.90
27270;DHT22;14769;56.934;24.176;2022-07-23T00:28:24;21.70;99.90
27270;DHT22;14769;56.934;24.176;2022-07-23T00:29:26;21.80;99.90
27270;DHT22;14769;56.934;24.176;2022-07-23T00:30:28;21.70;99.90
27270;DHT22;14769;56.934;24.176;2022-07-23T00:31:33;21.70;99.90
27270;DHT22;14769;56.934;24.176;2022-07-23T00:32:49;21.70;99.90
27270;DHT22;14769;56.934;24.176;2022-07-23T00:33:58;21.60;99.90
27270;DHT22;14769;56.934;24.176;2022-07-23T00:35:03;21.60;99.90
27270;DHT22;14769;56.934;24.176;2022-07-23T00:36:05;21.60;99.90
27270;DHT22;14769;56.934;24.176;2022-07-23T00:37:07;21.60;99.90
27270;DHT22;14769;56.934;24.176;2022-07-23T00:38:10;21.60;99.90
27270;DHT22;14769;56.934;24.176;2022-07-23T00:39:11;21.60;99.90
27270;DHT22;14769;56.934;24.176;2022-07-23T00:40:13;21.60;99.90
27270;DHT22;14769;56.934;24.176;2022-07-23T00:41:15;21.60;99.90
27270;DHT22;14769;56.934;24.176;2022-07-23T00:42:17;21.60;99.90
27270;DHT22;14769;56.934;24.176;2022-07-23T00:43:22;21.60;99.90
27270;DHT22;14769;56.934;24.176;2022-07-23T00:44:27;21.60;99.90
27270;DHT22;14769;56.934;24.176;2022-07-23T00:45:29;21.60;99.90
27270;DHT22;14769;56.934;24.176;2022-07-23T00:46:31;21.70;99.90
27270;DHT22;14769;56.934;24.176;2022-07-23T00:47:33;21.70;99.90
27270;DHT22;14769;56.934;24.176;2022-07-23T00:48:35;21.60;99.90
27270;DHT22;14769;56.934;24.176;2022-07-23T00:49:37;21.60;99.90
27270;DHT22;14769;56.934;24.176;2022-07-23T00:50:39;21.60;99.90
27270;DHT22;14769;56.934;24.176;2022-07-23T00:51:41;21.60;99.90
27270;DHT22;14769;56.934;24.176;2022-07-23T00:52:43;21.60;99.90
27270;DHT22;14769;56.934;24.176;2022-07-23T00:53:46;21.60;99.90
27270;DHT22;14769;56.934;24.176;2022-07-23T00:54:48;21.60;99.90
27270;DHT22;14769;56.934;24.176;2022-07-23T00:55:50;21.60;99.90
27270;DHT22;14769;56.934;24.176;2022-07-23T00:56:53;21.60;99.90
27270;DHT22;14769;56.934;24.176;2022-07-23T00:57:55;21.70;99.90
27270;DHT22;14769;56.934;24.176;2022-07-23T00:58:57;21.70;99.90
27270;DHT22;14769;56.934;24.176;2022-07-23T01:00:02;21.60;99.90
27270;DHT22;14769;56.934;24.176;2022-07-23T01:01:04;21.60;99.90
27270;DHT22;14769;56.934;24.176;2022-07-23T01:02:06;21.60;99.90
27270;DHT22;14769;56.934;24.176;2022-07-23T01:03:08;21.60;99.90
27270;DHT22;14769;56.934;24.176;2022-07-23T01:04:10;21.60;99.90
27270;DHT22;14769;56.934;24.176;2022-07-23T01:05:12;21.60;99.90
27270;DHT22;14769;56.934;24.176;2022-07-23T01:06:14;21.70;99.90
27270;DHT22;14769;56.934;24.176;2022-07-23T01:07:16;21.60;99.90
27270;DHT22;14769;56.934;24.176;2022-07-23T01:08:18;21.60;99.90
27270;DHT22;14769;56.934;24.176;2022-07-23T01:09:22;21.60;99.90
27270;DHT22;14769;56.934;24.176;2022-07-23T01:10:25;21.50;99.90
27270;DHT22;14769;56.934;24.176;2022-07-23T01:11:35;21.50;99.90
27270;DHT22;14769;56.934;24.176;2022-07-23T01:12:37;21.50;99.90
27270;DHT22;14769;56.934;24.176;2022-07-23T01:13:45;21.40;99.90
27270;DHT22;14769;56.934;24.176;2022-07-23T01:14:58;21.40;99.90
27270;DHT22;14769;56.934;24.176;2022-07-23T01:16:00;21.40;99.90
27270;DHT22;14769;56.934;24.176;2022-07-23T01:17:02;21.40;99.90
27270;DHT22;14769;56.934;24.176;2022-07-23T01:18:06;21.40;99.90
27270;DHT22;14769;56.934;24.176;2022-07-23T01:19:08;21.40;99.90
27270;DHT22;14769;56.934;24.176;2022-07-23T01:20:10;21.40;99.90
27270;DHT22;14769;56.934;24.176;2022-07-23T01:21:12;21.40;99.90
27270;DHT22;14769;56.934;24.176;2022-07-23T01:22:15;21.30;99.90
27270;DHT22;14769;56.934;24.176;2022-07-23T01:23:18;21.30;99.90
27270;DHT22;14769;56.934;24.176;2022-07-23T01:24:20;21.30;99.90
27270;DHT22;14769;56.934;24.176;2022-07-23T01:25:22;21.30;99.90
27270;DHT22;14769;56.934;24.176;2022-07-23T01:26:24;21.30;99.90
27270;DHT22;14769;56.934;24.176;2022-07-23T01:27:26;21.30;99.90
27270;DHT22;14769;56.934;24.176;2022-07-23T01:28:28;21.30;99.90
27270;DHT22;14769;56.934;24.176;2022-07-23T01:29:29;21.30;99.90
27270;DHT22;14769;56.934;24.176;2022-07-23T01:30:32;21.30;99.90
27270;DHT22;14769;56.934;24.176;2022-07-23T01:32:44;21.30;99.90
27270;DHT22;14769;56.934;24.176;2022-07-23T01:33:45;21.30;99.90
27270;DHT22;14769;56.934;24.176;2022-07-23T01:34:47;21.30;99.90
27270;DHT22;14769;56.934;24.176;2022-07-23T01:35:49;21.30;99.90
27270;DHT22;14769;56.934;24.176;2022-07-23T01:36:51;21.30;99.90
27270;DHT22;14769;56.934;24.176;2022-07-23T01:37:52;21.30;99.90
27270;DHT22;14769;56.934;24.176;2022-07-23T01:38:55;21.30;99.90
27270;DHT22;14769;56.934;24.176;2022-07-23T01:39:56;21.40;99.90
27270;DHT22;14769;56.934;24.176;2022-07-23T01:40:58;21.40;99.90
27270;DHT22;14769;56.934;24.176;2022-07-23T01:42:01;21.40;99.90
27270;DHT22;14769;56.934;24.176;2022-07-23T01:43:03;21.40;99.90
27270;DHT22;14769;56.934;24.176;2022-07-23T01:44:05;21.40;99.90
27270;DHT22;14769;56.934;24.176;2022-07-23T01:45:07;21.40;99.90
27270;DHT22;14769;56.934;24.176;2022-07-23T01:46:09;21.40;99.90
27270;DHT22;14769;56.934;24.176;2022-07-23T01:47:11;21.40;99.90
27270;DHT22;14769;56.934;24.176;2022-07-23T01:48:13;21.40;99.90
27270;DHT22;14769;56.934;24.176;2022-07-23T01:49:15;21.40;99.90
27270;DHT22;14769;56.934;24.176;2022-07-23T01:50:17;21.40;99.90
27270;DHT22;14769;56.934;24.176;2022-07-23T01:51:19;21.40;99.90
27270;DHT22;14769;56.934;24.176;2022-07-23T01:52:21;21.40;99.90
27270;DHT22;14769;56.934;24.176;2022-07-23T01:53:22;21.40;99.90
27270;DHT22;14769;56.934;24.176;2022-07-23T01:54:24;21.40;99.90
27270;DHT22;14769;56.934;24.176;2022-07-23T01:55:26;21.30;99.90
27270;DHT22;14769;56.934;24.176;2022-07-23T01:56:28;21.30;99.90
27270;DHT22;14769;56.934;24.176;2022-07-23T01:57:30;21.30;99.90
27270;DHT22;14769;56.934;24.176;2022-07-23T01:58:33;21.30;99.90
27270;DHT22;14769;56.934;24.176;2022-07-23T01:59:35;21.30;99.90
27270;DHT22;14769;56.934;24.176;2022-07-23T02:00:37;21.30;99.90
27270;DHT22;14769;56.934;24.176;2022-07-23T02:01:39;21.30;99.90
27270;DHT22;14769;56.934;24.176;2022-07-23T02:02:41;21.30;99.90
27270;DHT22;14769;56.934;24.176;2022-07-23T02:03:43;21.20;99.90
27270;DHT22;14769;56.934;24.176;2022-07-23T02:04:45;21.20;99.90
27270;DHT22;14769;56.934;24.176;2022-07-23T02:05:47;21.20;99.90
27270;DHT22;14769;56.934;24.176;2022-07-23T02:06:49;21.20;99.90
27270;DHT22;14769;56.934;24.176;2022-07-23T02:07:51;21.20;99.90
27270;DHT22;14769;56.934;24.176;2022-07-23T02:08:53;21.20;99.90
27270;DHT22;14769;56.934;24.176;2022-07-23T02:09:55;21.20;99.90
27270;DHT22;14769;56.934;24.176;2022-07-23T02:10:57;21.20;99.90
27270;DHT22;14769;56.934;24.176;2022-07-23T02:11:59;21.20;99.90
27270;DHT22;14769;56.934;24.176;2022-07-23T02:13:01;21.20;99.90
27270;DHT22;14769;56.934;24.176;2022-07-23T02:14:03;21.20;99.90
27270;DHT22;14769;56.934;24.176;2022-07-23T02:15:05;21.20;99.90
27270;DHT22;14769;56.934;24.176;2022-07-23T02:16:10;21.20;99.90
27270;DHT22;14769;56.934;24.176;2022-07-23T02:17:12;21.20;99.90
27270;DHT22;14769;56.934;24.176;2022-07-23T02:18:14;21.20;99.90
27270;DHT22;14769;56.934;24.176;2022-07-23T02:19:16;21.20;99.90
27270;DHT22;14769;56.934;24.176;2022-07-23T02:20:18;21.20;99.90
27270;DHT22;14769;56.934;24.176;2022-07-23T02:21:20;21.20;99.90
27270;DHT22;14769;56.934;24.176;2022-07-23T02:22:22;21.20;99.90
27270;DHT22;14769;56.934;24.176;2022-07-23T02:23:24;21.10;99.90
27270;DHT22;14769;56.934;24.176;2022-07-23T02:24:26;21.10;99.90
27270;DHT22;14769;56.934;24.176;2022-07-23T02:25:28;21.10;99.90
27270;DHT22;14769;56.934;24.176;2022-07-23T02:26:29;21.00;99.90
27270;DHT22;14769;56.934;24.176;2022-07-23T02:27:35;21.00;99.90
27270;DHT22;14769;56.934;24.176;2022-07-23T02:28:37;21.00;99.90
27270;DHT22;14769;56.934;24.176;2022-07-23T02:29:39;21.00;99.90
27270;DHT22;14769;56.934;24.176;2022-07-23T02:30:41;21.00;99.90
27270;DHT22;14769;56.934;24.176;2022-07-23T02:31:43;21.00;99.90
27270;DHT22;14769;56.934;24.176;2022-07-23T02:32:45;21.00;99.90
27270;DHT22;14769;56.934;24.176;2022-07-23T02:33:48;20.90;99.90
27270;DHT22;14769;56.934;24.176;2022-07-23T02:34:50;20.90;99.90
27270;DHT22;14769;56.934;24.176;2022-07-23T02:35:52;21.00;99.90
27270;DHT22;14769;56.934;24.176;2022-07-23T02:36:54;21.00;99.90
27270;DHT22;14769;56.934;24.176;2022-07-23T02:37:56;20.90;99.90
27270;DHT22;14769;56.934;24.176;2022-07-23T02:38:58;21.00;99.90
27270;DHT22;14769;56.934;24.176;2022-07-23T02:40:00;21.00;99.90
27270;DHT22;14769;56.934;24.176;2022-07-23T02:41:02;21.10;99.90
27270;DHT22;14769;56.934;24.176;2022-07-23T02:42:04;21.10;99.90
27270;DHT22;14769;56.934;24.176;2022-07-23T02:43:06;21.10;99.90
27270;DHT22;14769;56.934;24.176;2022-07-23T02:44:07;21.20;99.90
27270;DHT22;14769;56.934;24.176;2022-07-23T02:45:09;21.20;99.90
27270;DHT22;14769;56.934;24.176;2022-07-23T02:46:12;21.20;99.90
27270;DHT22;14769;56.934;24.176;2022-07-23T02:47:14;21.20;99.90
27270;DHT22;14769;56.934;24.176;2022-07-23T02:48:16;21.30;99.90
27270;DHT22;14769;56.934;24.176;2022-07-23T02:49:17;21.20;99.90
27270;DHT22;14769;56.934;24.176;2022-07-23T02:50:19;21.30;99.90
27270;DHT22;14769;56.934;24.176;2022-07-23T02:51:22;21.30;99.90
27270;DHT22;14769;56.934;24.176;2022-07-23T02:52:24;21.20;99.90
27270;DHT22;14769;56.934;24.176;2022-07-23T02:53:25;21.20;99.90
27270;DHT22;14769;56.934;24.176;2022-07-23T02:54:27;21.20;99.90
27270;DHT22;14769;56.934;24.176;2022-07-23T02:55:29;21.20;99.90
27270;DHT22;14769;56.934;24.176;2022-07-23T02:56:32;21.10;99.90
27270;DHT22;14769;56.934;24.176;2022-07-23T02:57:33;21.10;99.90
27270;DHT22;14769;56.934;24.176;2022-07-23T02:58:35;21.10;99.90
27270;DHT22;14769;56.934;24.176;2022-07-23T02:59:37;21.10;99.90
27270;DHT22;14769;56.934;24.176;2022-07-23T03:00:39;21.10;99.90
27270;DHT22;14769;56.934;24.176;2022-07-23T03:01:44;21.10;99.90
27270;DHT22;14769;56.934;24.176;2022-07-23T03:02:46;21.10;99.90
27270;DHT22;14769;56.934;24.176;2022-07-23T03:03:48;21.10;99.90
27270;DHT22;14769;56.934;24.176;2022-07-23T03:04:50;21.10;99.90
27270;DHT22;14769;56.934;24.176;2022-07-23T03:05:52;21.10;99.90
27270;DHT22;14769;56.934;24.176;2022-07-23T03:06:54;21.10;99.90
27270;DHT22;14769;56.934;24.176;2022-07-23T03:07:56;21.00;99.90
27270;DHT22;14769;56.934;24.176;2022-07-23T03:08:57;21.00;99.90
27270;DHT22;14769;56.934;24.176;2022-07-23T03:10:00;21.00;99.90
27270;DHT22;14769;56.934;24.176;2022-07-23T03:11:01;21.00;99.90
27270;DHT22;14769;56.934;24.176;2022-07-23T03:12:03;21.00;99.90
27270;DHT22;14769;56.934;24.176;2022-07-23T03:13:12;20.90;99.90
27270;DHT22;14769;56.934;24.176;2022-07-23T03:14:14;20.90;99.90
27270;DHT22;14769;56.934;24.176;2022-07-23T03:15:18;20.90;99.90
27270;DHT22;14769;56.934;24.176;2022-07-23T03:16:20;20.90;99.90
27270;DHT22;14769;56.934;24.176;2022-07-23T03:17:21;20.80;99.90
27270;DHT22;14769;56.934;24.176;2022-07-23T03:18:23;20.80;99.90
27270;DHT22;14769;56.934;24.176;2022-07-23T03:19:26;20.80;99.90
27270;DHT22;14769;56.934;24.176;2022-07-23T03:20:28;20.80;99.90
27270;DHT22;14769;56.934;24.176;2022-07-23T03:21:29;20.80;99.90
27270;DHT22;14769;56.934;24.176;2022-07-23T03:22:32;20.80;99.90
27270;DHT22;14769;56.934;24.176;2022-07-23T03:23:34;20.70;99.90
27270;DHT22;14769;56.934;24.176;2022-07-23T03:24:36;20.70;99.90
27270;DHT22;14769;56.934;24.176;2022-07-23T03:25:56;20.70;99.90
27270;DHT22;14769;56.934;24.176;2022-07-23T03:26:58;20.70;99.90
27270;DHT22;14769;56.934;24.176;2022-07-23T03:27:59;20.70;99.90
27270;DHT22;14769;56.934;24.176;2022-07-23T03:29:02;20.70;99.90
27270;DHT22;14769;56.934;24.176;2022-07-23T03:30:06;20.70;99.90
27270;DHT22;14769;56.934;24.176;2022-07-23T03:31:08;20.70;99.90
27270;DHT22;14769;56.934;24.176;2022-07-23T03:32:10;20.70;99.90
27270;DHT22;14769;56.934;24.176;2022-07-23T03:33:13;20.70;99.90
27270;DHT22;14769;56.934;24.176;2022-07-23T03:34:15;20.70;99.90
27270;DHT22;14769;56.934;24.176;2022-07-23T03:35:20;20.70;99.90
27270;DHT22;14769;56.934;24.176;2022-07-23T03:36:22;20.70;99.90
27270;DHT22;14769;56.934;24.176;2022-07-23T03:37:24;20.70;99.90
27270;DHT22;14769;56.934;24.176;2022-07-23T03:38:26;20.70;99.90
27270;DHT22;14769;56.934;24.176;2022-07-23T03:39:28;20.70;99.90
27270;DHT22;14769;56.934;24.176;2022-07-23T03:40:30;20.70;99.90
27270;DHT22;14769;56.934;24.176;2022-07-23T03:41:32;20.70;99.90
27270;DHT22;14769;56.934;24.176;2022-07-23T03:42:34;20.70;99.90
27270;DHT22;14769;56.934;24.176;2022-07-23T03:43:36;20.70;99.90
27270;DHT22;14769;56.934;24.176;2022-07-23T03:44:38;20.70;99.90
27270;DHT22;14769;56.934;24.176;2022-07-23T03:45:40;20.70;99.90
27270;DHT22;14769;56.934;24.176;2022-07-23T03:46:42;20.70;99.90
27270;DHT22;14769;56.934;24.176;2022-07-23T03:47:44;20.70;99.90
27270;DHT22;14769;56.934;24.176;2022-07-23T03:48:46;20.70;99.90
27270;DHT22;14769;56.934;24.176;2022-07-23T03:49:49;20.70;99.90
27270;DHT22;14769;56.934;24.176;2022-07-23T03:50:50;20.70;99.90
27270;DHT22;14769;56.934;24.176;2022-07-23T03:51:52;20.70;99.90
27270;DHT22;14769;56.934;24.176;2022-07-23T03:52:54;20.70;99.90
27270;DHT22;14769;56.934;24.176;2022-07-23T03:53:56;20.70;99.90
27270;DHT22;14769;56.934;24.176;2022-07-23T03:54:58;20.70;99.90
27270;DHT22;14769;56.934;24.176;2022-07-23T03:56:00;20.70;99.90
27270;DHT22;14769;56.934;24.176;2022-07-23T03:57:02;20.70;99.90
27270;DHT22;14769;56.934;24.176;2022-07-23T03:58:05;20.70;99.90
27270;DHT22;14769;56.934;24.176;2022-07-23T03:59:07;20.70;99.90
27270;DHT22;14769;56.934;24.176;2022-07-23T04:00:10;20.70;99.90
27270;DHT22;14769;56.934;24.176;2022-07-23T04:01:12;20.70;99.90
27270;DHT22;14769;56.934;24.176;2022-07-23T04:02:13;20.70;99.90
27270;DHT22;14769;56.934;24.176;2022-07-23T04:03:15;20.60;99.90
27270;DHT22;14769;56.934;24.176;2022-07-23T04:04:17;20.60;99.90
27270;DHT22;14769;56.934;24.176;2022-07-23T04:05:19;20.60;99.90
27270;DHT22;14769;56.934;24.176;2022-07-23T04:06:21;20.60;99.90
27270;DHT22;14769;56.934;24.176;2022-07-23T04:07:23;20.60;99.90
27270;DHT22;14769;56.934;24.176;2022-07-23T04:08:24;20.60;99.90
27270;DHT22;14769;56.934;24.176;2022-07-23T04:09:26;20.50;99.90
27270;DHT22;14769;56.934;24.176;2022-07-23T04:10:29;20.50;99.90
27270;DHT22;14769;56.934;24.176;2022-07-23T04:11:30;20.50;99.90
27270;DHT22;14769;56.934;24.176;2022-07-23T04:12:33;20.50;99.90
27270;DHT22;14769;56.934;24.176;2022-07-23T04:13:35;20.50;99.90
27270;DHT22;14769;56.934;24.176;2022-07-23T04:14:37;20.50;99.90
27270;DHT22;14769;56.934;24.176;2022-07-23T04:15:39;20.50;99.90
27270;DHT22;14769;56.934;24.176;2022-07-23T04:16:41;20.50;99.90
27270;DHT22;14769;56.934;24.176;2022-07-23T04:17:43;20.50;99.90
27270;DHT22;14769;56.934;24.176;2022-07-23T04:18:45;20.50;99.90
27270;DHT22;14769;56.934;24.176;2022-07-23T04:19:47;20.60;99.90
27270;DHT22;14769;56.934;24.176;2022-07-23T04:20:49;20.60;99.90
27270;DHT22;14769;56.934;24.176;2022-07-23T04:21:50;20.60;99.90
27270;DHT22;14769;56.934;24.176;2022-07-23T04:22:52;20.60;99.90
27270;DHT22;14769;56.934;24.176;2022-07-23T04:23:56;20.50;99.90
27270;DHT22;14769;56.934;24.176;2022-07-23T04:24:57;20.50;99.90
27270;DHT22;14769;56.934;24.176;2022-07-23T04:25:59;20.50;99.90
27270;DHT22;14769;56.934;24.176;2022-07-23T04:27:01;20.60;99.90
27270;DHT22;14769;56.934;24.176;2022-07-23T04:28:03;20.50;99.90
27270;DHT22;14769;56.934;24.176;2022-07-23T04:29:04;20.60;99.90
27270;DHT22;14769;56.934;24.176;2022-07-23T04:30:07;20.60;99.90
27270;DHT22;14769;56.934;24.176;2022-07-23T04:31:09;20.60;99.90
27270;DHT22;14769;56.934;24.176;2022-07-23T04:32:11;20.70;99.90
27270;DHT22;14769;56.934;24.176;2022-07-23T04:33:13;20.70;99.90
27270;DHT22;14769;56.934;24.176;2022-07-23T04:34:15;20.70;99.90
27270;DHT22;14769;56.934;24.176;2022-07-23T04:35:16;20.70;99.90
27270;DHT22;14769;56.934;24.176;2022-07-23T04:36:18;20.80;99.90
27270;DHT22;14769;56.934;24.176;2022-07-23T04:37:20;20.80;99.90
27270;DHT22;14769;56.934;24.176;2022-07-23T04:38:22;20.80;99.90
27270;DHT22;14769;56.934;24.176;2022-07-23T04:39:24;20.80;99.90
27270;DHT22;14769;56.934;24.176;2022-07-23T04:40:26;20.80;99.90
27270;DHT22;14769;56.934;24.176;2022-07-23T04:41:29;20.80;99.90
27270;DHT22;14769;56.934;24.176;2022-07-23T04:42:31;20.80;99.90
27270;DHT22;14769;56.934;24.176;2022-07-23T04:43:33;20.70;99.90
27270;DHT22;14769;56.934;24.176;2022-07-23T04:44:35;20.70;99.90
27270;DHT22;14769;56.934;24.176;2022-07-23T04:45:37;20.70;99.90
27270;DHT22;14769;56.934;24.176;2022-07-23T04:46:40;20.70;99.90
27270;DHT22;14769;56.934;24.176;2022-07-23T04:47:42;20.70;99.90
27270;DHT22;14769;56.934;24.176;2022-07-23T04:48:44;20.70;99.90
27270;DHT22;14769;56.934;24.176;2022-07-23T04:49:46;20.70;99.90
27270;DHT22;14769;56.934;24.176;2022-07-23T04:50:48;20.70;99.90
27270;DHT22;14769;56.934;24.176;2022-07-23T04:51:50;20.70;99.90
27270;DHT22;14769;56.934;24.176;2022-07-23T04:52:51;20.70;99.90
27270;DHT22;14769;56.934;24.176;2022-07-23T04:53:55;20.70;99.90
27270;DHT22;14769;56.934;24.176;2022-07-23T04:54:57;20.70;99.90
27270;DHT22;14769;56.934;24.176;2022-07-23T04:55:59;20.80;99.90
27270;DHT22;14769;56.934;24.176;2022-07-23T04:57:01;20.80;99.90
27270;DHT22;14769;56.934;24.176;2022-07-23T04:58:05;20.80;99.90
27270;DHT22;14769;56.934;24.176;2022-07-23T04:59:07;20.80;99.90
27270;DHT22;14769;56.934;24.176;2022-07-23T05:00:09;20.80;99.90
27270;DHT22;14769;56.934;24.176;2022-07-23T05:01:11;20.90;99.90
27270;DHT22;14769;56.934;24.176;2022-07-23T05:02:13;20.90;99.90
27270;DHT22;14769;56.934;24.176;2022-07-23T05:03:15;20.90;99.90
27270;DHT22;14769;56.934;24.176;2022-07-23T05:04:17;20.90;99.90
27270;DHT22;14769;56.934;24.176;2022-07-23T05:05:19;21.00;99.90
27270;DHT22;14769;56.934;24.176;2022-07-23T05:06:21;21.00;99.90
27270;DHT22;14769;56.934;24.176;2022-07-23T05:07:22;21.10;99.90
27270;DHT22;14769;56.934;24.176;2022-07-23T05:08:24;21.10;99.90
27270;DHT22;14769;56.934;24.176;2022-07-23T05:09:27;21.10;99.90
27270;DHT22;14769;56.934;24.176;2022-07-23T05:10:29;21.10;99.90
27270;DHT22;14769;56.934;24.176;2022-07-23T05:11:31;21.10;99.90
27270;DHT22;14769;56.934;24.176;2022-07-23T05:12:33;21.10;99.90
27270;DHT22;14769;56.934;24.176;2022-07-23T05:13:35;21.10;99.90
27270;DHT22;14769;56.934;24.176;2022-07-23T05:14:38;21.10;99.90
27270;DHT22;14769;56.934;24.176;2022-07-23T05:15:40;21.20;99.90
27270;DHT22;14769;56.934;24.176;2022-07-23T05:16:42;21.20;99.90
27270;DHT22;14769;56.934;24.176;2022-07-23T05:17:44;21.30;99.90
27270;DHT22;14769;56.934;24.176;2022-07-23T05:18:45;21.30;99.90
27270;DHT22;14769;56.934;24.176;2022-07-23T05:19:47;21.30;99.90
27270;DHT22;14769;56.934;24.176;2022-07-23T05:20:49;21.30;99.90
27270;DHT22;14769;56.934;24.176;2022-07-23T05:21:51;21.30;99.90
27270;DHT22;14769;56.934;24.176;2022-07-23T05:22:52;21.40;99.90
27270;DHT22;14769;56.934;24.176;2022-07-23T05:23:54;21.40;99.90
27270;DHT22;14769;56.934;24.176;2022-07-23T05:24:56;21.40;99.90
27270;DHT22;14769;56.934;24.176;2022-07-23T05:25:58;21.40;99.90
27270;DHT22;14769;56.934;24.176;2022-07-23T05:27:00;21.40;99.90
27270;DHT22;14769;56.934;24.176;2022-07-23T05:28:02;21.40;99.90
27270;DHT22;14769;56.934;24.176;2022-07-23T05:29:03;21.40;99.90
27270;DHT22;14769;56.934;24.176;2022-07-23T05:30:06;21.40;99.90
27270;DHT22;14769;56.934;24.176;2022-07-23T05:31:08;21.50;99.90
27270;DHT22;14769;56.934;24.176;2022-07-23T05:32:10;21.50;99.90
27270;DHT22;14769;56.934;24.176;2022-07-23T05:33:12;21.50;99.90
27270;DHT22;14769;56.934;24.176;2022-07-23T05:34:14;21.50;99.90
27270;DHT22;14769;56.934;24.176;2022-07-23T05:35:18;21.50;99.90
27270;DHT22;14769;56.934;24.176;2022-07-23T05:36:20;21.50;99.90
27270;DHT22;14769;56.934;24.176;2022-07-23T05:37:22;21.50;99.90
27270;DHT22;14769;56.934;24.176;2022-07-23T05:38:24;21.50;99.90
27270;DHT22;14769;56.934;24.176;2022-07-23T05:39:26;21.60;99.90
27270;DHT22;14769;56.934;24.176;2022-07-23T05:40:27;21.50;99.90
27270;DHT22;14769;56.934;24.176;2022-07-23T05:41:29;21.60;99.90
27270;DHT22;14769;56.934;24.176;2022-07-23T05:42:31;21.60;99.90
27270;DHT22;14769;56.934;24.176;2022-07-23T05:43:33;21.60;99.90
27270;DHT22;14769;56.934;24.176;2022-07-23T05:44:35;21.70;99.90
27270;DHT22;14769;56.934;24.176;2022-07-23T05:45:36;21.80;99.90
27270;DHT22;14769;56.934;24.176;2022-07-23T05:46:38;21.80;99.90
27270;DHT22;14769;56.934;24.176;2022-07-23T05:47:44;21.80;99.90
27270;DHT22;14769;56.934;24.176;2022-07-23T05:48:46;21.80;99.90
27270;DHT22;14769;56.934;24.176;2022-07-23T05:49:51;21.90;99.90
27270;DHT22;14769;56.934;24.176;2022-07-23T05:50:53;21.90;99.90
27270;DHT22;14769;56.934;24.176;2022-07-23T05:51:55;21.90;99.90
27270;DHT22;14769;56.934;24.176;2022-07-23T05:52:57;21.90;99.90
27270;DHT22;14769;56.934;24.176;2022-07-23T05:53:59;21.80;99.90
27270;DHT22;14769;56.934;24.176;2022-07-23T05:55:01;21.80;99.90
27270;DHT22;14769;56.934;24.176;2022-07-23T05:56:03;21.80;99.90
27270;DHT22;14769;56.934;24.176;2022-07-23T05:57:05;21.80;99.90
27270;DHT22;14769;56.934;24.176;2022-07-23T05:58:06;21.80;99.90
27270;DHT22;14769;56.934;24.176;2022-07-23T05:59:08;21.80;99.90
27270;DHT22;14769;56.934;24.176;2022-07-23T06:00:10;21.80;99.90
27270;DHT22;14769;56.934;24.176;2022-07-23T06:01:13;21.80;99.90
27270;DHT22;14769;56.934;24.176;2022-07-23T06:02:14;21.90;99.90
27270;DHT22;14769;56.934;24.176;2022-07-23T06:03:16;21.90;99.90
27270;DHT22;14769;56.934;24.176;2022-07-23T06:04:18;21.90;99.90
27270;DHT22;14769;56.934;24.176;2022-07-23T06:05:20;21.90;99.90
27270;DHT22;14769;56.934;24.176;2022-07-23T06:06:22;22.00;99.90
27270;DHT22;14769;56.934;24.176;2022-07-23T06:07:24;22.00;99.90
27270;DHT22;14769;56.934;24.176;2022-07-23T06:08:25;22.10;99.90
27270;DHT22;14769;56.934;24.176;2022-07-23T06:09:28;22.10;99.90
27270;DHT22;14769;56.934;24.176;2022-07-23T06:10:30;22.10;99.90
27270;DHT22;14769;56.934;24.176;2022-07-23T06:11:31;22.20;99.90
27270;DHT22;14769;56.934;24.176;2022-07-23T06:12:33;22.20;99.90
27270;DHT22;14769;56.934;24.176;2022-07-23T06:13:35;22.20;99.90
27270;DHT22;14769;56.934;24.176;2022-07-23T06:14:37;22.20;99.90
27270;DHT22;14769;56.934;24.176;2022-07-23T06:15:39;22.20;99.90
27270;DHT22;14769;56.934;24.176;2022-07-23T06:16:41;22.20;99.90
27270;DHT22;14769;56.934;24.176;2022-07-23T06:17:42;22.20;99.90
27270;DHT22;14769;56.934;24.176;2022-07-23T06:18:44;22.20;99.90
27270;DHT22;14769;56.934;24.176;2022-07-23T06:19:46;22.20;99.90
27270;DHT22;14769;56.934;24.176;2022-07-23T06:20:48;22.10;99.90
27270;DHT22;14769;56.934;24.176;2022-07-23T06:21:52;22.10;99.90
27270;DHT22;14769;56.934;24.176;2022-07-23T06:22:54;22.10;99.90
27270;DHT22;14769;56.934;24.176;2022-07-23T06:23:56;22.00;99.90
27270;DHT22;14769;56.934;24.176;2022-07-23T06:24:57;22.00;99.90
27270;DHT22;14769;56.934;24.176;2022-07-23T06:25:59;22.00;99.90
27270;DHT22;14769;56.934;24.176;2022-07-23T06:27:01;22.00;99.90
27270;DHT22;14769;56.934;24.176;2022-07-23T06:28:03;22.00;99.90